Terminal Aerodrome Forecast
Issued by NWS

Home | Current Version | Previous Version | Text Only | Print | Product List | Glossary On
Versions: 1 2 3 4 5 6 7 8 9 10 11 12 13 14 15 16 17 18 19 20 21 22 23
447
FTUS46 KSGX 090531
TAFSAN
TAF
KSAN 090531Z 0906/1012 VRB04KT P6SM SCT015 BKN200
     FM092100 30008KT P6SM BKN015 BKN150
     FM100100 VRB04KT P6SM OVC015=

USA.gov is the U.S. government's official web portal to all federal, state and local government web resources and services.